Time;durP1;ratioP1;P1;durP2;ratioP2;P2;SDS_P1;SDS_P2;PMS_P1;PMS_P2;Temp;Humidity;BMP_temperature;BMP_pressure;BME280_temperature;BME280_humidity;BME280_pressure;Samples;Min_cycle;Max_cycle;Signal;HPM_P1;HPM_P2
2021/05/05 00:00:24;;;;;;;4.43;2.93;;;7.30;99.90;;;;;;5040736;28;20231;-76
2021/05/05 00:02:50;;;;;;;5.17;3.57;;;7.30;99.90;;;;;;5040926;28;20181;-75
2021/05/05 00:05:16;;;;;;;3.43;3.13;;;7.30;99.90;;;;;;5058091;28;20201;-76
2021/05/05 00:07:42;;;;;;;8.50;4.83;;;7.30;99.90;;;;;;5041217;28;20172;-76
2021/05/05 00:10:08;;;;;;;4.03;2.83;;;7.30;99.90;;;;;;5040819;28;20216;-76
2021/05/05 00:12:35;;;;;;;3.53;3.23;;;7.20;99.90;;;;;;5041350;28;20630;-76
2021/05/05 00:15:01;;;;;;;3.53;3.23;;;7.20;99.90;;;;;;5041659;28;20244;-76
2021/05/05 00:17:27;;;;;;;6.37;3.50;;;7.20;99.90;;;;;;5057502;28;20176;-77
2021/05/05 00:19:52;;;;;;;7.00;3.70;;;7.20;99.90;;;;;;5040733;28;20204;-76
2021/05/05 00:22:18;;;;;;;3.20;2.73;;;7.10;99.90;;;;;;5040678;28;20177;-75
2021/05/05 00:24:44;;;;;;;5.47;4.17;;;7.10;99.90;;;;;;5074538;28;20224;-76
2021/05/05 00:27:10;;;;;;;4.00;2.87;;;7.00;99.90;;;;;;5041040;28;20177;-76
2021/05/05 00:29:35;;;;;;;6.23;4.70;;;6.80;99.90;;;;;;5040835;28;20203;-75
2021/05/05 00:32:01;;;;;;;6.53;4.30;;;6.80;99.90;;;;;;5040663;28;20173;-75
2021/05/05 00:34:26;;;;;;;5.23;4.73;;;6.70;99.90;;;;;;5057559;28;20169;-76
2021/05/05 00:36:52;;;;;;;7.93;5.00;;;6.60;99.90;;;;;;5057442;28;20177;-76
2021/05/05 00:39:17;;;;;;;5.67;5.07;;;6.70;99.90;;;;;;5040048;28;20274;-76
2021/05/05 00:41:43;;;;;;;5.87;4.97;;;6.60;99.90;;;;;;5040354;28;20175;-76
2021/05/05 00:44:09;;;;;;;6.87;5.43;;;6.70;99.90;;;;;;5073833;28;20556;-76
2021/05/05 00:46:34;;;;;;;6.07;5.47;;;6.60;99.90;;;;;;5057149;28;20675;-76
2021/05/05 00:49:00;;;;;;;5.73;5.07;;;6.60;99.90;;;;;;5073050;28;20228;-75
2021/05/05 00:51:26;;;;;;;5.37;4.80;;;6.60;99.90;;;;;;5056601;28;20664;-76
2021/05/05 00:53:52;;;;;;;5.43;4.77;;;6.70;99.90;;;;;;5039822;28;20666;-75
2021/05/05 00:56:18;;;;;;;5.03;4.53;;;6.70;99.90;;;;;;5040229;28;20173;-75
2021/05/05 00:58:43;;;;;;;6.53;4.63;;;6.70;99.90;;;;;;5039694;28;20308;-75
2021/05/05 01:01:09;;;;;;;5.97;4.80;;;6.70;99.90;;;;;;5039554;28;20267;-76
2021/05/05 01:03:34;;;;;;;4.53;4.10;;;6.70;99.90;;;;;;5039677;28;20213;-76
2021/05/05 01:06:01;;;;;;;4.00;3.70;;;6.70;99.90;;;;;;5039638;28;20204;-76
2021/05/05 01:08:26;;;;;;;5.27;3.77;;;6.70;99.90;;;;;;5056570;28;20193;-76
2021/05/05 01:10:52;;;;;;;4.13;3.73;;;6.70;99.90;;;;;;5039417;28;20615;-76
2021/05/05 01:13:18;;;;;;;4.17;3.60;;;6.70;99.90;;;;;;5056102;28;20166;-76
2021/05/05 01:15:43;;;;;;;3.60;3.30;;;6.70;99.90;;;;;;5056248;28;20174;-77
2021/05/05 01:18:10;;;;;;;5.43;4.00;;;6.70;99.90;;;;;;5039048;28;20185;-76
2021/05/05 01:20:35;;;;;;;4.50;4.10;;;6.70;99.90;;;;;;5039390;28;20643;-76
2021/05/05 01:23:01;;;;;;;3.90;3.50;;;6.70;99.90;;;;;;5056146;28;20268;-76
2021/05/05 01:25:27;;;;;;;5.80;3.70;;;6.70;99.90;;;;;;5039289;28;20208;-76
2021/05/05 01:27:53;;;;;;;4.53;3.87;;;6.70;99.90;;;;;;5056121;28;20177;-76
2021/05/05 01:30:20;;;;;;;7.07;4.40;;;6.70;99.90;;;;;;5039187;28;20194;-76
2021/05/05 01:32:47;;;;;;;5.17;4.33;;;6.70;99.90;;;;;;5039203;28;20313;-75
2021/05/05 01:35:13;;;;;;;5.17;4.67;;;6.70;99.90;;;;;;5039136;28;20184;-75
2021/05/05 01:37:41;;;;;;;5.40;4.90;;;6.80;99.90;;;;;;5055830;28;20174;-76
2021/05/05 01:40:08;;;;;;;7.73;5.33;;;6.80;99.90;;;;;;5055931;28;20203;-76
2021/05/05 01:42:33;;;;;;;5.90;5.30;;;6.80;99.90;;;;;;5056034;28;20296;-76
2021/05/05 01:44:59;;;;;;;6.47;5.83;;;6.80;99.90;;;;;;5072201;28;20276;-76
2021/05/05 01:47:25;;;;;;;7.40;5.50;;;6.80;99.90;;;;;;5072201;28;20223;-75
2021/05/05 01:49:50;;;;;;;6.67;5.37;;;6.80;99.90;;;;;;5071842;28;20214;-76
2021/05/05 01:52:17;;;;;;;6.67;5.83;;;6.80;99.90;;;;;;5038734;28;20173;-75
2021/05/05 01:54:42;;;;;;;9.50;6.23;;;6.80;99.90;;;;;;5038141;28;20213;-75
2021/05/05 01:57:24;;;;;;;6.93;5.87;;;6.80;99.90;;;;;;5055247;28;20172;-76
2021/05/05 01:59:49;;;;;;;8.90;5.80;;;6.90;99.90;;;;;;5071251;28;20213;-76
2021/05/05 02:02:15;;;;;;;5.70;4.43;;;6.90;99.90;;;;;;5055117;28;20176;-76
2021/05/05 02:04:41;;;;;;;8.33;5.63;;;6.80;99.90;;;;;;5038432;28;20204;-76
2021/05/05 02:07:07;;;;;;;7.47;5.53;;;6.80;99.90;;;;;;5071814;28;20177;-76
2021/05/05 02:09:32;;;;;;;7.33;5.20;;;6.80;99.90;;;;;;5054639;28;20204;-76
2021/05/05 02:11:58;;;;;;;8.47;5.27;;;6.80;99.90;;;;;;5055187;28;20175;-75
2021/05/05 02:14:24;;;;;;;5.60;5.00;;;6.80;99.90;;;;;;5038183;28;20184;-76
2021/05/05 02:16:56;;;;;;;6.97;5.30;;;6.80;99.90;;;;;;5055011;28;20177;-76
2021/05/05 02:19:22;;;;;;;6.73;5.17;;;6.80;99.90;;;;;;5038233;28;20569;-76
2021/05/05 02:21:47;;;;;;;8.57;4.87;;;6.90;99.90;;;;;;5054891;28;20632;-76
2021/05/05 02:24:13;;;;;;;8.77;5.50;;;6.90;99.90;;;;;;5054705;28;20583;-76
2021/05/05 02:26:38;;;;;;;8.17;5.77;;;6.80;99.90;;;;;;5037888;28;20676;-76
2021/05/05 02:29:04;;;;;;;5.80;4.80;;;6.80;99.90;;;;;;5054563;28;20185;-76
2021/05/05 02:31:30;;;;;;;7.27;4.87;;;6.80;99.90;;;;;;5054679;28;20204;-77
2021/05/05 02:33:55;;;;;;;6.60;5.03;;;6.70;99.90;;;;;;5071235;28;20180;-76
2021/05/05 02:36:21;;;;;;;7.27;4.20;;;6.70;99.90;;;;;;5071255;28;20187;-76
2021/05/05 02:38:47;;;;;;;5.30;4.70;;;6.70;99.90;;;;;;5054683;28;20208;-76
2021/05/05 02:41:12;;;;;;;8.43;4.70;;;6.70;99.90;;;;;;5054275;28;20666;-77
2021/05/05 02:43:38;;;;;;;5.60;4.23;;;6.70;99.90;;;;;;5054257;28;20178;-76
2021/05/05 02:46:04;;;;;;;8.03;4.17;;;6.70;99.90;;;;;;5053685;28;20201;-75
2021/05/05 02:48:30;;;;;;;9.50;4.43;;;6.80;99.90;;;;;;5037925;28;20208;-76
2021/05/05 02:50:55;;;;;;;9.10;4.50;;;6.80;99.90;;;;;;5054260;28;20158;-75
2021/05/05 02:53:21;;;;;;;4.30;3.87;;;6.80;99.90;;;;;;5054273;28;20516;-76
2021/05/05 02:55:47;;;;;;;6.90;3.77;;;6.90;99.90;;;;;;5037693;28;20189;-76
2021/05/05 02:58:12;;;;;;;6.20;4.50;;;6.80;99.90;;;;;;5070694;28;20189;-76
2021/05/05 03:00:38;;;;;;;8.37;5.27;;;6.90;99.90;;;;;;5070624;28;20192;-77
2021/05/05 03:03:04;;;;;;;5.83;3.60;;;6.80;99.90;;;;;;5070705;28;20202;-75
2021/05/05 03:05:29;;;;;;;5.20;3.47;;;6.80;99.90;;;;;;5053246;28;20294;-76
2021/05/05 03:07:55;;;;;;;25.70;3.53;;;6.80;99.90;;;;;;5070967;28;20197;-75
2021/05/05 03:10:21;;;;;;;4.10;3.27;;;6.80;99.90;;;;;;5037401;28;20661;-75
2021/05/05 03:12:46;;;;;;;6.33;2.90;;;6.70;99.90;;;;;;5037260;28;20187;-76
2021/05/05 03:15:12;;;;;;;2.73;2.40;;;6.70;99.90;;;;;;5070782;28;20701;-75
2021/05/05 03:17:38;;;;;;;4.40;3.17;;;6.60;99.90;;;;;;5043032;28;20641;-75
2021/05/05 03:20:06;;;;;;;5.43;2.93;;;6.60;99.90;;;;;;5050575;28;20197;-75
2021/05/05 03:22:32;;;;;;;4.63;2.93;;;6.60;99.90;;;;;;5034540;28;20174;-76
2021/05/05 03:24:58;;;;;;;4.23;2.57;;;6.60;99.90;;;;;;5034038;28;20205;-75
2021/05/05 03:27:24;;;;;;;3.73;2.60;;;6.70;99.90;;;;;;5034013;28;20180;-76
2021/05/05 03:29:49;;;;;;;4.07;2.50;;;6.70;99.90;;;;;;5053013;28;20205;-76
2021/05/05 03:32:15;;;;;;;2.60;2.40;;;6.70;99.90;;;;;;5039178;28;20553;-76
2021/05/05 03:34:40;;;;;;;4.80;3.00;;;6.60;99.90;;;;;;5044254;28;20554;-75
2021/05/05 03:37:06;;;;;;;5.13;3.03;;;6.60;99.90;;;;;;5026957;28;20552;-75
2021/05/05 03:39:32;;;;;;;6.03;3.83;;;6.60;99.90;;;;;;5035989;28;20296;-77
2021/05/05 03:41:57;;;;;;;5.70;4.30;;;6.50;99.90;;;;;;5053301;28;20185;-76
2021/05/05 03:44:23;;;;;;;9.80;4.87;;;6.50;99.90;;;;;;5053793;28;20178;-75
2021/05/05 03:46:49;;;;;;;6.13;5.10;;;6.40;99.90;;;;;;5037318;28;20219;-75
2021/05/05 03:49:15;;;;;;;6.70;6.00;;;6.40;99.90;;;;;;5053674;28;20200;-75
2021/05/05 03:51:40;;;;;;;9.33;6.27;;;6.20;99.90;;;;;;5037289;28;20178;-75
2021/05/05 03:54:06;;;;;;;6.47;5.73;;;6.20;99.90;;;;;;5070509;28;20175;-75
2021/05/05 03:56:32;;;;;;;7.50;6.17;;;6.20;99.90;;;;;;5037218;28;20193;-75
2021/05/05 03:58:58;;;;;;;9.50;6.07;;;6.20;99.90;;;;;;5052799;23;20233;-73
2021/05/05 04:01:24;;;;;;;7.63;6.63;;;6.20;99.90;;;;;;5030126;28;20179;-73
2021/05/05 04:03:49;;;;;;;7.60;6.63;;;6.10;99.90;;;;;;5030117;28;20281;-73
2021/05/05 04:06:15;;;;;;;7.97;6.83;;;6.00;99.90;;;;;;5031361;28;20543;-75
2021/05/05 04:08:40;;;;;;;8.33;6.27;;;6.00;99.90;;;;;;5029935;28;20176;-77
2021/05/05 04:11:06;;;;;;;9.83;7.03;;;5.90;99.90;;;;;;5029829;28;20189;-76
2021/05/05 04:13:32;;;;;;;6.93;6.17;;;5.90;99.90;;;;;;5013711;28;20169;-77
2021/05/05 04:15:59;;;;;;;9.00;6.00;;;5.80;99.90;;;;;;5013748;28;20211;-77
2021/05/05 04:18:26;;;;;;;8.77;6.87;;;5.80;99.90;;;;;;5033124;28;20176;-76
2021/05/05 04:20:52;;;;;;;7.20;5.77;;;5.80;99.90;;;;;;5017184;28;20212;-76
2021/05/05 04:23:17;;;;;;;7.47;5.43;;;5.80;99.90;;;;;;5034836;28;20180;-76
2021/05/05 04:25:43;;;;;;;9.17;5.57;;;5.80;99.90;;;;;;5033454;28;20623;-75
2021/05/05 04:28:08;;;;;;;10.70;5.67;;;5.80;99.90;;;;;;5033542;28;20646;-77
2021/05/05 04:30:34;;;;;;;8.63;5.97;;;5.80;99.90;;;;;;5034452;28;20669;-78
2021/05/05 04:33:00;;;;;;;5.70;4.53;;;5.70;99.90;;;;;;5033459;28;20630;-75
2021/05/05 04:35:25;;;;;;;5.90;4.50;;;5.80;99.90;;;;;;5017104;28;20177;-77
2021/05/05 04:37:51;;;;;;;6.17;4.37;;;5.70;99.90;;;;;;5033298;28;20211;-77
2021/05/05 04:40:16;;;;;;;6.53;4.77;;;5.70;99.90;;;;;;5016744;28;20704;-79
2021/05/05 04:42:42;;;;;;;8.23;4.83;;;5.80;99.90;;;;;;5016889;28;20184;-74
2021/05/05 04:45:08;;;;;;;5.73;4.07;;;5.80;99.90;;;;;;5034336;28;20322;-74
2021/05/05 04:47:34;;;;;;;6.97;4.07;;;5.80;99.90;;;;;;5034415;28;20219;-74
2021/05/05 04:50:00;;;;;;;6.50;3.27;;;5.80;99.90;;;;;;5000186;28;20198;-74
2021/05/05 04:52:26;;;;;;;5.30;3.07;;;5.80;99.90;;;;;;5016638;28;20201;-73
2021/05/05 04:54:51;;;;;;;8.20;3.27;;;5.80;99.90;;;;;;5033074;28;20216;-74
2021/05/05 04:57:17;;;;;;;4.73;2.33;;;5.90;99.90;;;;;;5033223;28;20267;-74
2021/05/05 04:59:42;;;;;;;5.67;2.87;;;5.80;99.90;;;;;;5032652;28;20215;-75
2021/05/05 05:02:08;;;;;;;6.37;2.83;;;5.80;99.90;;;;;;5034097;28;20187;-74
2021/05/05 05:04:37;;;;;;;4.90;2.23;;;5.80;99.90;;;;;;4999982;28;20187;-75
2021/05/05 05:07:04;;;;;;;6.27;2.13;;;5.80;99.90;;;;;;5016863;28;20234;-75
2021/05/05 05:09:29;;;;;;;5.00;2.10;;;5.70;99.90;;;;;;4999805;28;20657;-75
2021/05/05 05:11:55;;;;;;;4.87;2.27;;;5.60;99.90;;;;;;5033350;28;20235;-75
2021/05/05 05:14:21;;;;;;;9.03;2.80;;;5.60;99.90;;;;;;5016145;28;20653;-73
2021/05/05 05:16:46;;;;;;;5.30;2.23;;;5.60;99.90;;;;;;5033820;28;20182;-73
2021/05/05 05:19:12;;;;;;;3.77;2.10;;;5.60;99.90;;;;;;5033777;28;20206;-73
2021/05/05 05:21:37;;;;;;;4.20;1.93;;;5.60;99.90;;;;;;5015984;28;20270;-73
2021/05/05 05:24:03;;;;;;;5.57;2.33;;;5.60;99.90;;;;;;5033672;28;20192;-72
2021/05/05 05:26:29;;;;;;;9.57;2.80;;;5.50;99.90;;;;;;5015951;28;20221;-72
2021/05/05 05:28:54;;;;;;;5.03;2.67;;;5.50;99.90;;;;;;5032707;28;20205;-74
2021/05/05 05:31:20;;;;;;;5.97;2.30;;;5.50;99.90;;;;;;5032213;28;20205;-74
2021/05/05 05:33:45;;;;;;;7.67;2.80;;;5.50;99.90;;;;;;5015775;28;20269;-74
2021/05/05 05:36:11;;;;;;;9.33;2.50;;;5.60;99.90;;;;;;5015787;28;20264;-74
2021/05/05 05:38:36;;;;;;;8.33;2.57;;;5.60;99.90;;;;;;5015726;28;20554;-74
2021/05/05 05:41:02;;;;;;;7.80;2.00;;;5.70;99.90;;;;;;5033171;28;20641;-74
2021/05/05 05:43:27;;;;;;;5.37;2.20;;;5.70;99.90;;;;;;5033059;28;20183;-74
2021/05/05 05:45:53;;;;;;;7.80;2.03;;;5.60;99.90;;;;;;5032003;28;20209;-73
2021/05/05 05:48:18;;;;;;;11.00;2.27;;;5.60;99.90;;;;;;5032107;28;20183;-73
2021/05/05 05:50:44;;;;;;;3.93;2.03;;;5.50;99.90;;;;;;5031895;28;20208;-73
2021/05/05 05:53:09;;;;;;;7.50;2.33;;;5.50;99.90;;;;;;5033174;28;20174;-73
2021/05/05 05:55:35;;;;;;;3.67;2.27;;;5.60;99.90;;;;;;5014398;28;20270;-73
2021/05/05 05:58:03;;;;;;;6.30;2.67;;;5.80;99.90;;;;;;5002071;28;20274;-79
2021/05/05 06:00:29;;;;;;;6.50;2.80;;;5.90;99.90;;;;;;5000171;28;20222;-77
2021/05/05 06:02:54;;;;;;;9.33;3.23;;;5.90;99.90;;;;;;5002999;28;20182;-77
2021/05/05 06:05:20;;;;;;;6.17;3.37;;;5.90;99.90;;;;;;4995048;28;20200;-77
2021/05/05 06:07:45;;;;;;;7.43;4.10;;;5.90;99.90;;;;;;5002570;28;20179;-77
2021/05/05 06:10:12;;;;;;;5.87;3.27;;;5.90;99.90;;;;;;5003367;28;20333;-74
2021/05/05 06:12:38;;;;;;;6.27;3.70;;;6.20;99.90;;;;;;5000504;28;20179;-75
2021/05/05 06:15:04;;;;;;;7.77;4.17;;;6.50;99.90;;;;;;5018500;28;20182;-77
2021/05/05 06:17:30;;;;;;;8.87;4.40;;;6.60;99.90;;;;;;5002070;28;20209;-75
2021/05/05 06:19:56;;;;;;;8.83;4.60;;;6.90;99.90;;;;;;5032985;28;20565;-76
2021/05/05 06:22:21;;;;;;;7.77;4.17;;;7.20;99.90;;;;;;5018983;28;20179;-76
2021/05/05 06:24:47;;;;;;;8.50;4.13;;;7.40;99.90;;;;;;5000222;28;20298;-76
2021/05/05 06:27:13;;;;;;;8.43;4.40;;;7.40;99.90;;;;;;5006425;28;20274;-77
2021/05/05 06:29:38;;;;;;;13.60;4.70;;;7.50;99.90;;;;;;5010067;28;20203;-75
2021/05/05 06:32:04;;;;;;;12.73;4.57;;;7.70;99.90;;;;;;5024019;28;20174;-75
2021/05/05 06:34:32;;;;;;;10.50;4.83;;;7.70;99.90;;;;;;5013535;28;20188;-75
2021/05/05 06:36:58;;;;;;;10.77;5.00;;;7.60;99.90;;;;;;5014956;28;20604;-76
2021/05/05 06:39:24;;;;;;;12.73;5.60;;;7.70;99.90;;;;;;5025299;28;20198;-77
2021/05/05 06:41:49;;;;;;;10.17;4.53;;;7.60;99.90;;;;;;5011300;28;20174;-79
2021/05/05 06:44:15;;;;;;;10.37;6.10;;;7.30;99.90;;;;;;5011288;28;20182;-78
2021/05/05 06:46:43;;;;;;;8.83;5.97;;;7.10;99.90;;;;;;5011277;28;20207;-77
2021/05/05 06:49:10;;;;;;;8.40;5.23;;;7.10;99.90;;;;;;5026365;28;20260;-77
2021/05/05 06:51:36;;;;;;;7.47;4.70;;;6.90;99.90;;;;;;5005620;28;20215;-78
2021/05/05 06:54:01;;;;;;;7.73;4.77;;;6.90;99.90;;;;;;5010839;28;20184;-80
2021/05/05 06:56:27;;;;;;;6.53;4.83;;;6.80;99.90;;;;;;5011231;28;20186;-77
2021/05/05 06:58:53;;;;;;;6.03;4.30;;;6.70;99.90;;;;;;5010958;28;20199;-77
2021/05/05 07:01:18;;;;;;;6.33;4.27;;;6.80;99.90;;;;;;5011162;28;20180;-77
2021/05/05 07:03:44;;;;;;;6.73;4.37;;;6.80;99.90;;;;;;5011091;28;20291;-77
2021/05/05 07:06:09;;;;;;;7.63;4.73;;;6.80;99.90;;;;;;5025461;28;20210;-79
2021/05/05 07:08:35;;;;;;;9.97;4.97;;;6.70;99.90;;;;;;5030017;28;20206;-73
2021/05/05 07:11:01;;;;;;;9.33;5.20;;;6.70;99.90;;;;;;5031434;28;20634;-74
2021/05/05 07:13:26;;;;;;;8.13;5.10;;;6.70;99.90;;;;;;5030796;28;20646;-74
2021/05/05 07:15:52;;;;;;;11.57;5.70;;;6.90;99.90;;;;;;5002534;28;20190;-72
2021/05/05 07:18:17;;;;;;;8.83;5.57;;;7.10;99.90;;;;;;5010981;28;20182;-75
2021/05/05 07:20:44;;;;;;;6.53;4.83;;;7.20;99.90;;;;;;5010813;28;20300;-75
2021/05/05 07:23:09;;;;;;;11.73;4.80;;;7.20;99.90;;;;;;5010981;28;20290;-77
2021/05/05 07:25:35;;;;;;;8.10;4.77;;;7.00;99.90;;;;;;5011020;28;20698;-77
2021/05/05 07:28:00;;;;;;;10.87;4.63;;;6.90;99.90;;;;;;5010963;28;20634;-74
2021/05/05 07:30:26;;;;;;;9.30;5.17;;;7.00;99.90;;;;;;5010777;28;20278;-78
2021/05/05 07:32:52;;;;;;;6.40;4.20;;;7.50;99.90;;;;;;5010908;28;20271;-76
2021/05/05 07:35:18;;;;;;;7.57;3.80;;;7.70;99.90;;;;;;5010817;28;20189;-75
2021/05/05 07:45:49;;;;;;;7.27;4.27;;;8.00;99.90;;;;;;5011103;28;20278;-74
2021/05/05 07:48:28;;;;;;;5.97;3.23;;;8.40;99.90;;;;;;5010949;28;20159;-73
2021/05/05 07:50:54;;;;;;;6.90;3.13;;;8.30;99.90;;;;;;5010642;28;20272;-75
2021/05/05 07:53:19;;;;;;;8.33;3.03;;;7.90;99.90;;;;;;5010531;28;20258;-75
2021/05/05 07:55:45;;;;;;;8.43;2.90;;;7.80;99.90;;;;;;5014370;28;20238;-75
2021/05/05 07:58:11;;;;;;;9.17;3.27;;;7.90;99.90;;;;;;5015642;28;20180;-74
2021/05/05 08:00:38;;;;;;;7.00;3.10;;;8.10;99.90;;;;;;4997866;28;20211;-73
2021/05/05 08:03:03;;;;;;;8.33;3.40;;;8.30;99.90;;;;;;4998013;28;20187;-74
2021/05/05 08:05:29;;;;;;;8.13;3.13;;;8.40;99.90;;;;;;5015345;28;20195;-76
2021/05/05 08:07:54;;;;;;;10.10;3.20;;;8.20;99.90;;;;;;4997502;28;20171;-73
2021/05/05 08:10:20;;;;;;;5.93;2.80;;;8.30;99.90;;;;;;5005373;28;20701;-75
2021/05/05 08:12:46;;;;;;;7.63;2.90;;;8.30;99.90;;;;;;4980231;28;20592;-75
2021/05/05 08:15:12;;;;;;;10.30;3.10;;;8.40;99.90;;;;;;4993692;28;20191;-76
2021/05/05 08:17:38;;;;;;;5.37;2.43;;;8.50;99.90;;;;;;4978297;28;20223;-75
2021/05/05 08:20:05;;;;;;;6.73;3.27;;;8.30;99.90;;;;;;4989932;28;20203;-76
2021/05/05 08:22:30;;;;;;;6.60;2.80;;;8.40;99.90;;;;;;4997435;28;20179;-75
2021/05/05 08:24:56;;;;;;;5.57;2.40;;;8.70;99.90;;;;;;4997488;28;20547;-75
2021/05/05 08:27:22;;;;;;;5.53;2.43;;;8.80;99.90;;;;;;4997193;28;20718;-76
2021/05/05 08:29:48;;;;;;;6.47;1.93;;;9.30;99.90;;;;;;5013419;28;20674;-77
2021/05/05 08:32:13;;;;;;;5.77;2.00;;;9.50;99.90;;;;;;5014867;28;20182;-78
2021/05/05 08:34:39;;;;;;;5.17;2.10;;;9.40;99.90;;;;;;5013707;28;20248;-75
2021/05/05 08:37:04;;;;;;;8.77;2.20;;;9.40;99.90;;;;;;5013582;28;20530;-75
2021/05/05 08:39:30;;;;;;;3.00;1.70;;;9.40;99.90;;;;;;5015906;28;20206;-76
2021/05/05 08:41:57;;;;;;;4.40;2.17;;;9.00;99.90;;;;;;5013416;28;20172;-77
2021/05/05 08:44:23;;;;;;;6.57;2.07;;;8.60;99.90;;;;;;5013536;28;20258;-76
2021/05/05 08:46:49;;;;;;;6.33;2.20;;;8.70;99.90;;;;;;5013191;28;20604;-76
2021/05/05 08:49:15;;;;;;;4.53;2.00;;;9.00;99.90;;;;;;5013359;28;20265;-75
2021/05/05 08:51:40;;;;;;;5.27;1.70;;;9.40;99.90;;;;;;4996850;28;20183;-75
2021/05/05 08:54:07;;;;;;;9.67;2.20;;;9.50;99.90;;;;;;5013418;28;20199;-75
2021/05/05 08:56:35;;;;;;;5.87;1.83;;;9.40;99.90;;;;;;5013360;28;20218;-75
2021/05/05 08:59:08;;;;;;;5.93;1.60;;;9.40;99.90;;;;;;4996516;28;20211;-75
2021/05/05 09:01:34;;;;;;;4.13;1.90;;;9.20;99.90;;;;;;5013166;28;20179;-75
2021/05/05 09:04:00;;;;;;;5.43;1.70;;;8.80;99.90;;;;;;5011853;28;20179;-75
2021/05/05 09:06:57;;;;;;;3.70;1.63;;;8.70;99.90;;;;;;5013031;28;20210;-75
2021/05/05 09:09:44;;;;;;;3.37;1.37;;;8.90;99.90;;;;;;5012726;28;20194;-76
2021/05/05 09:12:20;;;;;;;5.50;1.40;;;9.20;99.90;;;;;;5013111;28;20172;-76
2021/05/05 09:15:05;;;;;;;8.47;1.70;;;9.50;99.90;;;;;;5014097;28;20168;-75
2021/05/05 09:17:32;;;;;;;4.77;1.30;;;9.80;99.90;;;;;;5012866;28;20180;-76
2021/05/05 09:20:06;;;;;;;7.90;1.83;;;10.10;99.90;;;;;;5013402;28;20238;-75
2021/05/05 09:22:34;;;;;;;5.73;1.80;;;10.30;99.90;;;;;;5012930;28;20581;-74
2021/05/05 09:24:59;;;;;;;5.40;1.40;;;10.20;99.90;;;;;;5013830;28;20195;-75
2021/05/05 09:27:25;;;;;;;4.23;1.60;;;10.40;99.90;;;;;;5012523;28;20318;-75
2021/05/05 09:29:50;;;;;;;4.87;1.57;;;10.20;99.90;;;;;;5012325;28;20278;-75
2021/05/05 09:32:18;;;;;;;4.27;1.90;;;9.80;99.90;;;;;;5012620;28;20727;-75
2021/05/05 09:34:53;;;;;;;3.50;1.93;;;9.70;99.90;;;;;;4995773;28;20334;-75
2021/05/05 09:37:19;;;;;;;6.27;1.80;;;9.90;99.90;;;;;;5012414;28;20183;-75
2021/05/05 09:39:45;;;;;;;3.63;1.57;;;9.80;99.90;;;;;;5022445;28;20200;-74
2021/05/05 09:42:16;;;;;;;3.30;1.77;;;9.70;99.90;;;;;;5033220;28;20576;-74
2021/05/05 09:45:05;;;;;;;5.57;2.33;;;10.10;99.90;;;;;;5033279;28;20250;-75
2021/05/05 09:47:50;;;;;;;5.97;1.90;;;10.70;99.90;;;;;;5015799;28;20172;-75
2021/05/05 09:50:44;;;;;;;5.27;1.60;;;11.30;99.90;;;;;;5032975;28;20198;-75
2021/05/05 09:53:25;;;;;;;4.40;1.50;;;11.40;99.90;;;;;;5031982;28;20176;-75
2021/05/05 09:55:54;;;;;;;4.17;1.87;;;11.00;99.90;;;;;;5016249;28;20187;-74
2021/05/05 09:58:30;;;;;;;6.10;1.47;;;10.80;99.90;;;;;;5033055;28;20245;-75
2021/05/05 10:01:05;;;;;;;4.73;1.50;;;10.70;99.90;;;;;;4998590;28;20221;-74
2021/05/05 10:03:37;;;;;;;6.53;1.70;;;10.90;99.90;;;;;;5031799;28;20180;-74
2021/05/05 10:06:24;;;;;;;4.47;1.83;;;10.70;99.90;;;;;;5030638;28;20217;-75
2021/05/05 10:08:54;;;;;;;3.47;1.70;;;10.10;99.90;;;;;;5031958;28;20190;-78
2021/05/05 10:11:21;;;;;;;2.73;1.40;;;9.50;99.90;;;;;;4998297;28;20229;-79
2021/05/05 10:13:58;;;;;;;2.20;1.20;;;9.00;99.90;;;;;;4994782;28;20545;-81
2021/05/05 10:16:24;;;;;;;2.63;1.10;;;8.80;99.90;;;;;;5007625;28;20210;-81
2021/05/05 10:18:50;;;;;;;1.03;0.90;;;9.00;99.90;;;;;;5010999;28;20179;-79
2021/05/05 10:21:18;;;;;;;1.27;0.83;;;8.50;99.90;;;;;;4994479;28;20183;-76
2021/05/05 10:23:44;;;;;;;2.53;0.80;;;8.70;99.90;;;;;;4995159;28;20211;-79
2021/05/05 10:26:11;;;;;;;1.97;1.00;;;9.00;99.90;;;;;;4994432;28;20610;-79
2021/05/05 10:28:39;;;;;;;3.57;1.13;;;9.20;99.90;;;;;;4994474;28;20182;-77
2021/05/05 10:31:15;;;;;;;3.43;1.50;;;9.30;99.90;;;;;;4991014;28;20247;-80
2021/05/05 10:33:41;;;;;;;2.90;1.30;;;9.60;99.90;;;;;;4976524;28;20602;-77
2021/05/05 10:36:36;;;;;;;4.40;1.70;;;9.80;99.90;;;;;;4975002;28;20180;-78
2021/05/05 10:39:22;;;;;;;3.10;1.47;;;9.90;99.90;;;;;;4991131;28;20208;-79
2021/05/05 10:42:02;;;;;;;3.10;1.83;;;10.10;99.90;;;;;;4988308;28;20219;-70
2021/05/05 10:44:40;;;;;;;4.97;1.90;;;10.70;99.90;;;;;;4992326;28;20242;-71
2021/05/05 10:47:11;;;;;;;6.17;1.90;;;11.20;99.90;;;;;;4991127;28;20195;-71
2021/05/05 10:49:59;;;;;;;3.90;1.87;;;11.20;99.90;;;;;;4991103;28;20189;-71
2021/05/05 10:52:29;;;;;;;6.97;2.13;;;10.90;99.90;;;;;;4994934;28;20172;-71
2021/05/05 10:54:56;;;;;;;5.23;1.97;;;10.40;99.90;;;;;;4988500;28;20187;-71
2021/05/05 10:57:22;;;;;;;4.17;2.07;;;9.80;99.90;;;;;;4990851;28;20326;-73
2021/05/05 10:59:57;;;;;;;5.77;2.30;;;9.60;99.90;;;;;;4978652;28;571246;-73
2021/05/05 11:02:44;;;;;;;3.87;1.63;;;9.60;99.90;;;;;;5007342;28;20278;-75
2021/05/05 11:05:11;;;;;;;2.13;1.10;;;9.20;99.90;;;;;;5000775;28;20261;-76
2021/05/05 11:07:56;;;;;;;5.23;1.30;;;8.50;99.90;;;;;;5000043;28;20222;-74
2021/05/05 11:10:31;;;;;;;2.43;0.90;;;7.90;99.90;;;;;;4994435;28;20202;-78
2021/05/05 11:12:57;;;;;;;3.43;1.00;;;7.50;99.90;;;;;;5006264;28;20186;-80
2021/05/05 11:15:45;;;;;;;3.27;1.10;;;7.30;99.90;;;;;;5010071;28;20187;-77
2021/05/05 11:20:52;;;;;;;2.60;1.40;;;7.60;99.90;;;;;;5001191;28;20326;-77
2021/05/05 11:23:33;;;;;;;5.03;1.63;;;8.00;99.90;;;;;;5001819;28;20250;-76
2021/05/05 11:26:20;;;;;;;7.03;1.73;;;8.50;99.90;;;;;;5000789;28;20284;-78
2021/05/05 11:28:54;;;;;;;3.20;1.87;;;8.80;99.90;;;;;;5012541;28;20259;-75
2021/05/05 11:31:20;;;;;;;4.97;2.30;;;9.10;99.90;;;;;;4999756;28;20179;-74
2021/05/05 11:33:59;;;;;;;6.77;2.30;;;9.50;99.90;;;;;;5016529;28;20168;-72
2021/05/05 11:36:25;;;;;;;5.57;1.90;;;10.10;99.90;;;;;;5014433;28;20187;-77
2021/05/05 11:38:50;;;;;;;5.87;2.00;;;10.50;99.90;;;;;;4995032;28;20218;-77
2021/05/05 11:41:20;;;;;;;4.57;1.53;;;10.90;99.90;;;;;;5019969;28;20690;-75
2021/05/05 11:43:46;;;;;;;5.40;1.63;;;11.20;99.90;;;;;;5017616;28;20548;-77
2021/05/05 11:46:11;;;;;;;6.77;1.67;;;11.10;99.90;;;;;;5001476;28;20716;-76
2021/05/05 11:48:38;;;;;;;4.57;1.40;;;11.20;99.90;;;;;;5002294;28;20258;-76
2021/05/05 11:51:24;;;;;;;3.60;1.33;;;11.00;99.90;;;;;;5001109;28;20186;-75
2021/05/05 11:53:50;;;;;;;3.07;1.33;;;10.80;99.90;;;;;;5000171;28;20667;-75
2021/05/05 11:56:17;;;;;;;4.93;1.37;;;10.40;99.90;;;;;;4999336;28;20227;-74
2021/05/05 11:58:51;;;;;;;6.67;1.40;;;9.90;99.90;;;;;;5015167;28;20180;-76
2021/05/05 12:01:28;;;;;;;3.17;1.00;;;9.40;99.90;;;;;;5005971;28;20671;-76
2021/05/05 12:03:54;;;;;;;4.10;1.47;;;9.00;99.90;;;;;;4986307;28;20179;-77
2021/05/05 12:06:19;;;;;;;3.73;1.10;;;8.90;99.90;;;;;;5013917;28;20293;-77
2021/05/05 12:08:47;;;;;;;5.40;1.60;;;8.70;99.90;;;;;;5014119;28;20653;-77
2021/05/05 12:11:12;;;;;;;4.60;1.57;;;8.60;99.90;;;;;;5016208;28;20555;-75
2021/05/05 12:13:44;;;;;;;4.00;1.77;;;8.50;99.90;;;;;;5015024;28;20179;-78
2021/05/05 12:16:18;;;;;;;5.93;1.60;;;8.50;99.90;;;;;;5009130;28;20582;-78
2021/05/05 12:18:47;;;;;;;5.93;2.10;;;8.40;99.90;;;;;;4979201;28;20256;-78
2021/05/05 12:21:20;;;;;;;4.43;1.50;;;8.30;99.90;;;;;;4994611;28;20172;-76
2021/05/05 12:23:54;;;;;;;3.07;1.20;;;8.20;99.90;;;;;;4978429;28;20663;-77
2021/05/05 12:26:33;;;;;;;3.30;1.20;;;8.10;99.90;;;;;;5013142;28;20230;-78
2021/05/05 12:28:59;;;;;;;6.60;1.80;;;8.10;99.90;;;;;;4993885;28;20191;-77
2021/05/05 12:31:29;;;;;;;4.30;1.57;;;8.20;99.90;;;;;;4998054;28;20184;-76
2021/05/05 12:33:54;;;;;;;4.17;1.30;;;8.50;99.90;;;;;;4978119;28;20275;-78
2021/05/05 12:36:21;;;;;;;6.53;1.67;;;8.80;99.90;;;;;;4994568;28;20204;-76
2021/05/05 12:38:48;;;;;;;2.53;1.20;;;9.10;99.90;;;;;;5004468;28;20598;-75
2021/05/05 12:41:16;;;;;;;3.80;1.50;;;9.20;99.90;;;;;;5011023;28;20681;-75
2021/05/05 12:43:45;;;;;;;3.97;1.63;;;9.10;99.90;;;;;;5010325;28;20206;-78
2021/05/05 12:46:27;;;;;;;5.37;1.47;;;9.10;99.90;;;;;;5012543;28;20282;-78
2021/05/05 12:48:53;;;;;;;5.37;1.30;;;9.10;99.90;;;;;;4989503;28;20283;-78
2021/05/05 12:51:21;;;;;;;5.40;1.33;;;9.20;99.90;;;;;;4997981;28;20215;-76
2021/05/05 12:53:47;;;;;;;6.17;1.40;;;9.30;99.90;;;;;;4999127;28;20182;-77
2021/05/05 12:56:13;;;;;;;6.90;1.33;;;9.20;99.90;;;;;;5000530;28;20270;-77
2021/05/05 12:58:43;;;;;;;4.43;1.50;;;9.20;99.90;;;;;;5012700;28;20183;-74
2021/05/05 13:01:13;;;;;;;4.33;1.57;;;9.20;99.90;;;;;;5005195;28;20245;-77
2021/05/05 13:03:40;;;;;;;4.87;1.27;;;9.20;99.90;;;;;;4992051;28;20655;-79
2021/05/05 13:06:06;;;;;;;6.33;1.50;;;9.10;99.90;;;;;;4989237;28;20290;-79
2021/05/05 13:08:49;;;;;;;5.30;1.50;;;9.10;99.90;;;;;;5009601;28;20226;-80